sensor_id;sensor_type;location;lat;lon;timestamp;P1;durP1;ratioP1;P2;durP2;ratioP2
20397;SDS011;10358;49.590;11.030;2022-07-23T00:02:07;13.60;;;8.15;;
20397;SDS011;10358;49.590;11.030;2022-07-23T00:04:33;11.20;;;8.70;;
20397;SDS011;10358;49.590;11.030;2022-07-23T00:06:58;13.13;;;8.65;;
20397;SDS011;10358;49.590;11.030;2022-07-23T00:09:24;12.95;;;8.25;;
20397;SDS011;10358;49.590;11.030;2022-07-23T00:11:50;13.43;;;8.95;;
20397;SDS011;10358;49.590;11.030;2022-07-23T00:14:15;15.38;;;8.48;;
20397;SDS011;10358;49.590;11.030;2022-07-23T00:16:41;11.65;;;8.85;;
20397;SDS011;10358;49.590;11.030;2022-07-23T00:19:06;14.10;;;8.57;;
20397;SDS011;10358;49.590;11.030;2022-07-23T00:21:32;12.80;;;8.90;;
20397;SDS011;10358;49.590;11.030;2022-07-23T00:23:57;16.20;;;8.32;;
20397;SDS011;10358;49.590;11.030;2022-07-23T00:26:23;13.10;;;8.20;;
20397;SDS011;10358;49.590;11.030;2022-07-23T00:28:48;13.27;;;8.10;;
20397;SDS011;10358;49.590;11.030;2022-07-23T00:31:14;10.45;;;7.65;;
20397;SDS011;10358;49.590;11.030;2022-07-23T00:33:40;12.18;;;8.18;;
20397;SDS011;10358;49.590;11.030;2022-07-23T00:36:05;14.65;;;8.52;;
20397;SDS011;10358;49.590;11.030;2022-07-23T00:38:31;13.15;;;8.55;;
20397;SDS011;10358;49.590;11.030;2022-07-23T00:40:57;9.10;;;8.07;;
20397;SDS011;10358;49.590;11.030;2022-07-23T00:43:23;18.77;;;8.45;;
20397;SDS011;10358;49.590;11.030;2022-07-23T00:45:49;13.18;;;8.75;;
20397;SDS011;10358;49.590;11.030;2022-07-23T00:48:15;15.63;;;8.43;;
20397;SDS011;10358;49.590;11.030;2022-07-23T00:50:41;12.20;;;8.95;;
20397;SDS011;10358;49.590;11.030;2022-07-23T00:53:07;9.93;;;8.38;;
20397;SDS011;10358;49.590;11.030;2022-07-23T00:55:34;12.38;;;8.27;;
20397;SDS011;10358;49.590;11.030;2022-07-23T00:57:59;13.93;;;8.60;;
20397;SDS011;10358;49.590;11.030;2022-07-23T01:00:26;8.60;;;7.35;;
20397;SDS011;10358;49.590;11.030;2022-07-23T01:02:52;13.05;;;8.45;;
20397;SDS011;10358;49.590;11.030;2022-07-23T01:05:18;10.63;;;8.60;;
20397;SDS011;10358;49.590;11.030;2022-07-23T01:07:46;14.85;;;8.48;;
20397;SDS011;10358;49.590;11.030;2022-07-23T01:10:15;12.52;;;8.57;;
20397;SDS011;10358;49.590;11.030;2022-07-23T01:12:57;13.73;;;8.60;;
20397;SDS011;10358;49.590;11.030;2022-07-23T01:15:27;15.07;;;8.70;;
20397;SDS011;10358;49.590;11.030;2022-07-23T01:17:53;11.13;;;8.43;;
20397;SDS011;10358;49.590;11.030;2022-07-23T01:20:19;15.52;;;8.60;;
20397;SDS011;10358;49.590;11.030;2022-07-23T01:22:45;11.75;;;8.13;;
20397;SDS011;10358;49.590;11.030;2022-07-23T01:25:11;12.18;;;8.38;;
20397;SDS011;10358;49.590;11.030;2022-07-23T01:27:36;10.57;;;8.10;;
20397;SDS011;10358;49.590;11.030;2022-07-23T01:30:03;11.80;;;7.70;;
20397;SDS011;10358;49.590;11.030;2022-07-23T01:32:29;11.57;;;8.27;;
20397;SDS011;10358;49.590;11.030;2022-07-23T01:34:55;13.20;;;8.68;;
20397;SDS011;10358;49.590;11.030;2022-07-23T01:37:21;12.98;;;7.80;;
20397;SDS011;10358;49.590;11.030;2022-07-23T01:39:46;12.18;;;8.20;;
20397;SDS011;10358;49.590;11.030;2022-07-23T01:42:12;12.32;;;8.38;;
20397;SDS011;10358;49.590;11.030;2022-07-23T01:44:37;12.15;;;8.25;;
20397;SDS011;10358;49.590;11.030;2022-07-23T01:47:03;9.45;;;8.18;;
20397;SDS011;10358;49.590;11.030;2022-07-23T01:49:29;12.02;;;8.38;;
20397;SDS011;10358;49.590;11.030;2022-07-23T01:51:54;13.20;;;8.27;;
20397;SDS011;10358;49.590;11.030;2022-07-23T01:54:26;9.70;;;7.80;;
20397;SDS011;10358;49.590;11.030;2022-07-23T01:56:56;10.23;;;8.27;;
20397;SDS011;10358;49.590;11.030;2022-07-23T01:59:22;11.80;;;8.63;;
20397;SDS011;10358;49.590;11.030;2022-07-23T02:01:48;14.10;;;8.85;;
20397;SDS011;10358;49.590;11.030;2022-07-23T02:04:16;10.55;;;8.90;;
20397;SDS011;10358;49.590;11.030;2022-07-23T02:06:42;12.05;;;8.88;;
20397;SDS011;10358;49.590;11.030;2022-07-23T02:09:07;14.15;;;8.18;;
20397;SDS011;10358;49.590;11.030;2022-07-23T02:11:33;15.00;;;9.10;;
20397;SDS011;10358;49.590;11.030;2022-07-23T02:13:58;13.63;;;8.70;;
20397;SDS011;10358;49.590;11.030;2022-07-23T02:16:24;10.63;;;8.50;;
20397;SDS011;10358;49.590;11.030;2022-07-23T02:18:49;13.90;;;8.63;;
20397;SDS011;10358;49.590;11.030;2022-07-23T02:21:15;13.05;;;8.65;;
20397;SDS011;10358;49.590;11.030;2022-07-23T02:23:40;12.57;;;9.07;;
20397;SDS011;10358;49.590;11.030;2022-07-23T02:26:06;13.05;;;9.20;;
20397;SDS011;10358;49.590;11.030;2022-07-23T02:28:32;11.02;;;8.80;;
20397;SDS011;10358;49.590;11.030;2022-07-23T02:30:57;13.77;;;9.50;;
20397;SDS011;10358;49.590;11.030;2022-07-23T02:33:23;9.90;;;8.43;;
20397;SDS011;10358;49.590;11.030;2022-07-23T02:35:48;11.98;;;8.93;;
20397;SDS011;10358;49.590;11.030;2022-07-23T02:38:14;11.18;;;8.82;;
20397;SDS011;10358;49.590;11.030;2022-07-23T02:40:39;10.63;;;8.48;;
20397;SDS011;10358;49.590;11.030;2022-07-23T02:43:05;12.43;;;9.15;;
20397;SDS011;10358;49.590;11.030;2022-07-23T02:45:30;11.05;;;8.90;;
20397;SDS011;10358;49.590;11.030;2022-07-23T02:47:56;14.63;;;9.43;;
20397;SDS011;10358;49.590;11.030;2022-07-23T02:50:22;13.98;;;9.60;;
20397;SDS011;10358;49.590;11.030;2022-07-23T02:52:47;11.48;;;9.45;;
20397;SDS011;10358;49.590;11.030;2022-07-23T02:55:13;12.35;;;10.18;;
20397;SDS011;10358;49.590;11.030;2022-07-23T02:57:39;12.38;;;9.52;;
20397;SDS011;10358;49.590;11.030;2022-07-23T03:00:05;12.35;;;9.23;;
20397;SDS011;10358;49.590;11.030;2022-07-23T03:02:31;12.55;;;9.90;;
20397;SDS011;10358;49.590;11.030;2022-07-23T03:04:57;15.15;;;9.73;;
20397;SDS011;10358;49.590;11.030;2022-07-23T03:07:23;12.70;;;9.40;;
20397;SDS011;10358;49.590;11.030;2022-07-23T03:09:49;13.18;;;9.70;;
20397;SDS011;10358;49.590;11.030;2022-07-23T03:12:14;15.48;;;9.55;;
20397;SDS011;10358;49.590;11.030;2022-07-23T03:14:40;13.13;;;9.65;;
20397;SDS011;10358;49.590;11.030;2022-07-23T03:17:06;13.43;;;10.05;;
20397;SDS011;10358;49.590;11.030;2022-07-23T03:19:32;16.38;;;9.57;;
20397;SDS011;10358;49.590;11.030;2022-07-23T03:21:57;11.10;;;9.15;;
20397;SDS011;10358;49.590;11.030;2022-07-23T03:24:23;12.50;;;9.48;;
20397;SDS011;10358;49.590;11.030;2022-07-23T03:27:08;12.32;;;9.68;;
20397;SDS011;10358;49.590;11.030;2022-07-23T03:29:34;14.07;;;9.13;;
20397;SDS011;10358;49.590;11.030;2022-07-23T03:32:00;12.70;;;10.00;;
20397;SDS011;10358;49.590;11.030;2022-07-23T03:34:26;15.63;;;9.88;;
20397;SDS011;10358;49.590;11.030;2022-07-23T03:36:52;14.05;;;9.70;;
20397;SDS011;10358;49.590;11.030;2022-07-23T03:39:17;12.20;;;8.95;;
20397;SDS011;10358;49.590;11.030;2022-07-23T03:41:43;13.05;;;9.20;;
20397;SDS011;10358;49.590;11.030;2022-07-23T03:44:08;14.18;;;8.88;;
20397;SDS011;10358;49.590;11.030;2022-07-23T03:46:34;11.95;;;9.75;;
20397;SDS011;10358;49.590;11.030;2022-07-23T03:48:59;13.82;;;9.43;;
20397;SDS011;10358;49.590;11.030;2022-07-23T03:51:25;17.15;;;9.60;;
20397;SDS011;10358;49.590;11.030;2022-07-23T03:53:50;16.58;;;9.55;;
20397;SDS011;10358;49.590;11.030;2022-07-23T03:56:16;12.13;;;9.60;;
20397;SDS011;10358;49.590;11.030;2022-07-23T03:58:41;18.60;;;10.25;;
20397;SDS011;10358;49.590;11.030;2022-07-23T04:01:07;12.95;;;9.45;;
20397;SDS011;10358;49.590;11.030;2022-07-23T04:03:32;13.65;;;9.13;;
20397;SDS011;10358;49.590;11.030;2022-07-23T04:05:58;15.50;;;10.30;;
20397;SDS011;10358;49.590;11.030;2022-07-23T04:08:23;15.00;;;10.18;;
20397;SDS011;10358;49.590;11.030;2022-07-23T04:10:50;11.70;;;9.23;;
20397;SDS011;10358;49.590;11.030;2022-07-23T04:13:15;16.25;;;10.13;;
20397;SDS011;10358;49.590;11.030;2022-07-23T04:15:41;11.65;;;9.55;;
20397;SDS011;10358;49.590;11.030;2022-07-23T04:18:07;12.82;;;10.00;;
20397;SDS011;10358;49.590;11.030;2022-07-23T04:20:33;15.60;;;10.20;;
20397;SDS011;10358;49.590;11.030;2022-07-23T04:22:58;12.85;;;9.35;;
20397;SDS011;10358;49.590;11.030;2022-07-23T04:25:24;14.00;;;9.75;;
20397;SDS011;10358;49.590;11.030;2022-07-23T04:27:49;13.82;;;9.80;;
20397;SDS011;10358;49.590;11.030;2022-07-23T04:30:15;14.07;;;10.00;;
20397;SDS011;10358;49.590;11.030;2022-07-23T04:32:40;13.65;;;9.85;;
20397;SDS011;10358;49.590;11.030;2022-07-23T04:35:06;13.05;;;9.57;;
20397;SDS011;10358;49.590;11.030;2022-07-23T04:37:32;12.95;;;9.77;;
20397;SDS011;10358;49.590;11.030;2022-07-23T04:39:58;13.88;;;10.05;;
20397;SDS011;10358;49.590;11.030;2022-07-23T04:42:24;12.57;;;9.88;;
20397;SDS011;10358;49.590;11.030;2022-07-23T04:44:49;13.43;;;9.65;;
20397;SDS011;10358;49.590;11.030;2022-07-23T04:47:15;13.82;;;9.55;;
20397;SDS011;10358;49.590;11.030;2022-07-23T04:49:40;13.02;;;9.23;;
20397;SDS011;10358;49.590;11.030;2022-07-23T04:52:06;11.73;;;9.07;;
20397;SDS011;10358;49.590;11.030;2022-07-23T04:54:31;14.63;;;10.15;;
20397;SDS011;10358;49.590;11.030;2022-07-23T04:56:57;13.40;;;9.35;;
20397;SDS011;10358;49.590;11.030;2022-07-23T04:59:22;13.05;;;9.13;;
20397;SDS011;10358;49.590;11.030;2022-07-23T05:01:48;11.70;;;9.05;;
20397;SDS011;10358;49.590;11.030;2022-07-23T05:04:13;13.52;;;9.23;;
20397;SDS011;10358;49.590;11.030;2022-07-23T05:06:39;14.23;;;9.27;;
20397;SDS011;10358;49.590;11.030;2022-07-23T05:09:04;14.90;;;9.30;;
20397;SDS011;10358;49.590;11.030;2022-07-23T05:11:30;13.50;;;9.13;;
20397;SDS011;10358;49.590;11.030;2022-07-23T05:13:55;11.63;;;9.05;;
20397;SDS011;10358;49.590;11.030;2022-07-23T05:16:21;15.18;;;9.60;;
20397;SDS011;10358;49.590;11.030;2022-07-23T05:18:47;14.88;;;9.55;;
20397;SDS011;10358;49.590;11.030;2022-07-23T05:21:12;13.48;;;9.23;;
20397;SDS011;10358;49.590;11.030;2022-07-23T05:23:38;12.45;;;8.55;;
20397;SDS011;10358;49.590;11.030;2022-07-23T05:26:03;10.05;;;8.43;;
20397;SDS011;10358;49.590;11.030;2022-07-23T05:28:29;11.80;;;8.90;;
20397;SDS011;10358;49.590;11.030;2022-07-23T05:30:54;13.80;;;8.70;;
20397;SDS011;10358;49.590;11.030;2022-07-23T05:33:20;9.70;;;7.95;;
20397;SDS011;10358;49.590;11.030;2022-07-23T05:35:45;10.70;;;7.68;;
20397;SDS011;10358;49.590;11.030;2022-07-23T05:38:11;12.10;;;8.27;;
20397;SDS011;10358;49.590;11.030;2022-07-23T05:40:37;11.77;;;8.45;;
20397;SDS011;10358;49.590;11.030;2022-07-23T05:43:02;10.27;;;7.93;;
20397;SDS011;10358;49.590;11.030;2022-07-23T05:45:28;11.00;;;7.97;;
20397;SDS011;10358;49.590;11.030;2022-07-23T05:47:53;10.82;;;7.53;;
20397;SDS011;10358;49.590;11.030;2022-07-23T05:50:20;12.75;;;7.65;;
20397;SDS011;10358;49.590;11.030;2022-07-23T05:52:45;10.95;;;6.95;;
20397;SDS011;10358;49.590;11.030;2022-07-23T05:55:11;10.95;;;6.95;;
20397;SDS011;10358;49.590;11.030;2022-07-23T05:57:37;12.80;;;6.97;;
20397;SDS011;10358;49.590;11.030;2022-07-23T06:00:03;9.57;;;6.70;;
20397;SDS011;10358;49.590;11.030;2022-07-23T06:02:30;8.30;;;6.93;;
20397;SDS011;10358;49.590;11.030;2022-07-23T06:04:56;9.60;;;6.82;;
20397;SDS011;10358;49.590;11.030;2022-07-23T06:07:21;7.70;;;6.30;;
20397;SDS011;10358;49.590;11.030;2022-07-23T06:09:47;12.82;;;7.22;;
20397;SDS011;10358;49.590;11.030;2022-07-23T06:12:14;10.63;;;6.95;;
20397;SDS011;10358;49.590;11.030;2022-07-23T06:14:40;12.80;;;6.07;;
20397;SDS011;10358;49.590;11.030;2022-07-23T06:17:05;8.30;;;6.70;;
20397;SDS011;10358;49.590;11.030;2022-07-23T06:19:31;8.15;;;6.07;;
20397;SDS011;10358;49.590;11.030;2022-07-23T06:21:56;7.20;;;6.07;;
20397;SDS011;10358;49.590;11.030;2022-07-23T06:24:22;7.50;;;6.03;;
20397;SDS011;10358;49.590;11.030;2022-07-23T06:26:47;9.57;;;6.00;;
20397;SDS011;10358;49.590;11.030;2022-07-23T06:29:13;8.02;;;6.05;;
20397;SDS011;10358;49.590;11.030;2022-07-23T06:31:38;8.90;;;5.90;;
20397;SDS011;10358;49.590;11.030;2022-07-23T06:34:04;8.88;;;5.70;;
20397;SDS011;10358;49.590;11.030;2022-07-23T06:36:29;10.18;;;5.65;;
20397;SDS011;10358;49.590;11.030;2022-07-23T06:38:55;8.05;;;5.13;;
20397;SDS011;10358;49.590;11.030;2022-07-23T06:41:21;8.50;;;5.28;;
20397;SDS011;10358;49.590;11.030;2022-07-23T06:43:47;6.90;;;4.72;;
20397;SDS011;10358;49.590;11.030;2022-07-23T06:46:13;9.15;;;4.75;;
20397;SDS011;10358;49.590;11.030;2022-07-23T06:48:38;6.05;;;4.90;;
20397;SDS011;10358;49.590;11.030;2022-07-23T06:51:04;6.50;;;4.55;;
20397;SDS011;10358;49.590;11.030;2022-07-23T06:53:30;7.10;;;5.10;;
20397;SDS011;10358;49.590;11.030;2022-07-23T06:55:55;5.45;;;4.93;;
20397;SDS011;10358;49.590;11.030;2022-07-23T06:58:21;10.35;;;6.13;;
20397;SDS011;10358;49.590;11.030;2022-07-23T07:00:46;6.68;;;5.18;;
20397;SDS011;10358;49.590;11.030;2022-07-23T07:03:12;7.88;;;5.15;;
20397;SDS011;10358;49.590;11.030;2022-07-23T07:05:37;7.70;;;5.30;;
20397;SDS011;10358;49.590;11.030;2022-07-23T07:08:04;8.07;;;5.90;;
20397;SDS011;10358;49.590;11.030;2022-07-23T07:10:30;9.63;;;5.68;;
20397;SDS011;10358;49.590;11.030;2022-07-23T07:12:56;10.93;;;6.13;;
20397;SDS011;10358;49.590;11.030;2022-07-23T07:15:21;9.73;;;5.95;;
20397;SDS011;10358;49.590;11.030;2022-07-23T07:17:47;9.07;;;6.03;;
20397;SDS011;10358;49.590;11.030;2022-07-23T07:20:13;8.15;;;5.88;;
20397;SDS011;10358;49.590;11.030;2022-07-23T07:22:39;7.53;;;5.68;;
20397;SDS011;10358;49.590;11.030;2022-07-23T07:25:05;7.53;;;5.63;;
20397;SDS011;10358;49.590;11.030;2022-07-23T07:27:31;7.60;;;5.55;;
20397;SDS011;10358;49.590;11.030;2022-07-23T07:29:56;6.88;;;5.57;;
20397;SDS011;10358;49.590;11.030;2022-07-23T07:32:22;8.80;;;5.68;;
20397;SDS011;10358;49.590;11.030;2022-07-23T07:34:48;7.50;;;5.57;;
20397;SDS011;10358;49.590;11.030;2022-07-23T07:37:13;8.63;;;6.38;;
20397;SDS011;10358;49.590;11.030;2022-07-23T07:39:39;7.43;;;6.22;;
20397;SDS011;10358;49.590;11.030;2022-07-23T07:42:04;9.73;;;6.00;;
20397;SDS011;10358;49.590;11.030;2022-07-23T07:44:30;6.40;;;5.15;;
20397;SDS011;10358;49.590;11.030;2022-07-23T07:46:55;5.63;;;4.70;;
20397;SDS011;10358;49.590;11.030;2022-07-23T07:49:21;7.03;;;5.15;;
20397;SDS011;10358;49.590;11.030;2022-07-23T07:51:46;10.60;;;5.53;;
20397;SDS011;10358;49.590;11.030;2022-07-23T07:54:12;10.57;;;5.65;;
20397;SDS011;10358;49.590;11.030;2022-07-23T07:56:38;7.13;;;5.70;;
20397;SDS011;10358;49.590;11.030;2022-07-23T07:59:03;13.43;;;5.82;;
20397;SDS011;10358;49.590;11.030;2022-07-23T08:01:29;11.38;;;6.22;;
20397;SDS011;10358;49.590;11.030;2022-07-23T08:03:55;6.80;;;5.50;;
20397;SDS011;10358;49.590;11.030;2022-07-23T08:06:20;10.05;;;6.45;;
20397;SDS011;10358;49.590;11.030;2022-07-23T08:08:46;9.50;;;6.53;;
20397;SDS011;10358;49.590;11.030;2022-07-23T08:11:12;16.38;;;7.03;;
20397;SDS011;10358;49.590;11.030;2022-07-23T08:13:37;10.82;;;6.63;;
20397;SDS011;10358;49.590;11.030;2022-07-23T08:16:03;9.35;;;6.28;;
20397;SDS011;10358;49.590;11.030;2022-07-23T08:18:29;9.93;;;6.70;;
20397;SDS011;10358;49.590;11.030;2022-07-23T08:20:54;8.05;;;5.97;;
20397;SDS011;10358;49.590;11.030;2022-07-23T08:23:20;21.52;;;9.23;;
20397;SDS011;10358;49.590;11.030;2022-07-23T08:25:45;15.90;;;8.60;;
20397;SDS011;10358;49.590;11.030;2022-07-23T08:28:12;10.85;;;7.63;;
20397;SDS011;10358;49.590;11.030;2022-07-23T08:30:39;10.82;;;7.53;;
20397;SDS011;10358;49.590;11.030;2022-07-23T08:33:07;9.68;;;7.25;;
20397;SDS011;10358;49.590;11.030;2022-07-23T08:35:42;10.18;;;6.85;;
20397;SDS011;10358;49.590;11.030;2022-07-23T08:38:11;9.30;;;6.35;;
20397;SDS011;10358;49.590;11.030;2022-07-23T08:40:39;11.73;;;8.25;;
20397;SDS011;10358;49.590;11.030;2022-07-23T08:43:07;12.25;;;8.48;;
20397;SDS011;10358;49.590;11.030;2022-07-23T08:45:35;9.73;;;7.78;;
20397;SDS011;10358;49.590;11.030;2022-07-23T08:48:16;12.00;;;7.55;;
20397;SDS011;10358;49.590;11.030;2022-07-23T08:50:45;9.98;;;7.43;;
20397;SDS011;10358;49.590;11.030;2022-07-23T08:53:12;10.80;;;7.80;;
20397;SDS011;10358;49.590;11.030;2022-07-23T08:55:39;12.95;;;9.20;;
20397;SDS011;10358;49.590;11.030;2022-07-23T08:58:04;12.63;;;8.27;;
20397;SDS011;10358;49.590;11.030;2022-07-23T09:00:31;12.57;;;7.80;;
20397;SDS011;10358;49.590;11.030;2022-07-23T09:02:57;10.75;;;8.57;;
20397;SDS011;10358;49.590;11.030;2022-07-23T09:05:22;11.32;;;8.07;;
20397;SDS011;10358;49.590;11.030;2022-07-23T09:08:02;8.70;;;7.28;;
20397;SDS011;10358;49.590;11.030;2022-07-23T09:10:54;10.30;;;7.93;;
20397;SDS011;10358;49.590;11.030;2022-07-23T09:15:56;10.25;;;8.75;;
20397;SDS011;10358;49.590;11.030;2022-07-23T09:18:40;11.43;;;8.77;;
20397;SDS011;10358;49.590;11.030;2022-07-23T09:23:49;13.13;;;8.90;;
20397;SDS011;10358;49.590;11.030;2022-07-23T09:26:35;12.98;;;8.70;;
20397;SDS011;10358;49.590;11.030;2022-07-23T09:29:09;10.95;;;8.32;;
20397;SDS011;10358;49.590;11.030;2022-07-23T09:31:42;13.65;;;8.73;;
20397;SDS011;10358;49.590;11.030;2022-07-23T09:34:20;14.48;;;9.00;;
20397;SDS011;10358;49.590;11.030;2022-07-23T09:36:48;13.27;;;8.63;;
20397;SDS011;10358;49.590;11.030;2022-07-23T09:39:15;10.63;;;7.85;;
20397;SDS011;10358;49.590;11.030;2022-07-23T09:41:49;10.27;;;8.00;;
20397;SDS011;10358;49.590;11.030;2022-07-23T09:44:16;10.25;;;7.80;;
20397;SDS011;10358;49.590;11.030;2022-07-23T09:46:48;13.27;;;7.95;;
20397;SDS011;10358;49.590;11.030;2022-07-23T09:49:17;9.18;;;8.10;;
20397;SDS011;10358;49.590;11.030;2022-07-23T09:51:48;10.93;;;8.02;;
20397;SDS011;10358;49.590;11.030;2022-07-23T09:55:00;14.82;;;8.05;;
20397;SDS011;10358;49.590;11.030;2022-07-23T09:57:10;10.27;;;7.85;;
20397;SDS011;10358;49.590;11.030;2022-07-23T09:59:39;14.18;;;7.70;;
20397;SDS011;10358;49.590;11.030;2022-07-23T10:02:06;9.52;;;7.57;;
20397;SDS011;10358;49.590;11.030;2022-07-23T10:04:33;12.32;;;7.70;;
20397;SDS011;10358;49.590;11.030;2022-07-23T10:07:00;9.27;;;7.50;;
20397;SDS011;10358;49.590;11.030;2022-07-23T10:09:29;11.30;;;7.93;;
20397;SDS011;10358;49.590;11.030;2022-07-23T10:11:57;12.02;;;7.97;;
20397;SDS011;10358;49.590;11.030;2022-07-23T10:14:31;11.23;;;8.00;;
20397;SDS011;10358;49.590;11.030;2022-07-23T10:17:00;10.68;;;7.70;;
20397;SDS011;10358;49.590;11.030;2022-07-23T10:19:27;10.98;;;7.80;;
20397;SDS011;10358;49.590;11.030;2022-07-23T10:21:54;10.32;;;7.70;;
20397;SDS011;10358;49.590;11.030;2022-07-23T10:29:49;10.52;;;7.38;;
20397;SDS011;10358;49.590;11.030;2022-07-23T10:35:07;11.88;;;7.85;;
20397;SDS011;10358;49.590;11.030;2022-07-23T10:38:13;9.70;;;7.50;;
20397;SDS011;10358;49.590;11.030;2022-07-23T10:40:59;12.15;;;7.25;;
20397;SDS011;10358;49.590;11.030;2022-07-23T10:43:26;9.95;;;6.90;;
20397;SDS011;10358;49.590;11.030;2022-07-23T10:45:53;10.52;;;7.75;;
20397;SDS011;10358;49.590;11.030;2022-07-23T10:48:20;9.77;;;7.45;;
20397;SDS011;10358;49.590;11.030;2022-07-23T10:56:17;10.57;;;7.07;;
20397;SDS011;10358;49.590;11.030;2022-07-23T10:59:04;9.57;;;7.45;;
20397;SDS011;10358;49.590;11.030;2022-07-23T11:01:33;8.77;;;6.75;;
20397;SDS011;10358;49.590;11.030;2022-07-23T11:04:01;9.52;;;6.85;;
20397;SDS011;10358;49.590;11.030;2022-07-23T11:14:58;10.05;;;7.30;;
20397;SDS011;10358;49.590;11.030;2022-07-23T11:17:33;12.23;;;7.35;;
20397;SDS011;10358;49.590;11.030;2022-07-23T11:22:50;10.32;;;7.32;;
20397;SDS011;10358;49.590;11.030;2022-07-23T11:27:46;12.45;;;7.38;;
20397;SDS011;10358;49.590;11.030;2022-07-23T11:33:38;13.13;;;7.45;;
20397;SDS011;10358;49.590;11.030;2022-07-23T11:35:40;9.52;;;7.45;;
20397;SDS011;10358;49.590;11.030;2022-07-23T11:40:40;10.57;;;7.28;;
20397;SDS011;10358;49.590;11.030;2022-07-23T11:43:09;12.55;;;7.40;;
20397;SDS011;10358;49.590;11.030;2022-07-23T11:48:03;9.60;;;6.57;;
20397;SDS011;10358;49.590;11.030;2022-07-23T11:50:30;10.18;;;7.07;;
20397;SDS011;10358;49.590;11.030;2022-07-23T11:52:56;8.68;;;6.53;;
20397;SDS011;10358;49.590;11.030;2022-07-23T11:55:22;8.18;;;6.45;;
20397;SDS011;10358;49.590;11.030;2022-07-23T11:57:47;9.10;;;6.72;;
20397;SDS011;10358;49.590;11.030;2022-07-23T12:00:25;9.52;;;7.38;;
20397;SDS011;10358;49.590;11.030;2022-07-23T12:02:53;10.48;;;7.10;;
20397;SDS011;10358;49.590;11.030;2022-07-23T12:05:26;10.20;;;6.97;;
20397;SDS011;10358;49.590;11.030;2022-07-23T12:07:56;8.25;;;6.68;;
20397;SDS011;10358;49.590;11.030;2022-07-23T12:10:27;9.48;;;6.82;;
20397;SDS011;10358;49.590;11.030;2022-07-23T12:12:55;8.20;;;6.82;;
20397;SDS011;10358;49.590;11.030;2022-07-23T12:15:36;9.98;;;6.20;;
20397;SDS011;10358;49.590;11.030;2022-07-23T12:18:10;10.05;;;6.80;;
20397;SDS011;10358;49.590;11.030;2022-07-23T12:20:48;8.18;;;6.47;;
20397;SDS011;10358;49.590;11.030;2022-07-23T12:23:16;7.25;;;6.28;;
20397;SDS011;10358;49.590;11.030;2022-07-23T12:25:44;12.93;;;6.28;;
20397;SDS011;10358;49.590;11.030;2022-07-23T12:28:12;9.05;;;5.90;;
20397;SDS011;10358;49.590;11.030;2022-07-23T12:33:10;7.95;;;5.75;;
20397;SDS011;10358;49.590;11.030;2022-07-23T12:35:38;9.85;;;6.22;;
20397;SDS011;10358;49.590;11.030;2022-07-23T12:38:13;9.25;;;5.70;;
20397;SDS011;10358;49.590;11.030;2022-07-23T12:40:44;10.88;;;5.65;;
20397;SDS011;10358;49.590;11.030;2022-07-23T12:43:21;6.45;;;5.28;;
20397;SDS011;10358;49.590;11.030;2022-07-23T12:45:55;8.00;;;6.00;;
20397;SDS011;10358;49.590;11.030;2022-07-23T12:48:51;11.13;;;5.72;;
20397;SDS011;10358;49.590;11.030;2022-07-23T12:51:19;8.30;;;5.35;;
20397;SDS011;10358;49.590;11.030;2022-07-23T12:53:50;8.65;;;5.57;;
20397;SDS011;10358;49.590;11.030;2022-07-23T12:56:21;7.75;;;5.50;;
20397;SDS011;10358;49.590;11.030;2022-07-23T13:01:29;6.03;;;5.00;;
20397;SDS011;10358;49.590;11.030;2022-07-23T13:04:04;6.90;;;5.28;;
20397;SDS011;10358;49.590;11.030;2022-07-23T13:06:33;7.00;;;5.03;;
20397;SDS011;10358;49.590;11.030;2022-07-23T13:09:02;6.57;;;4.93;;
20397;SDS011;10358;49.590;11.030;2022-07-23T13:11:29;5.90;;;5.25;;
20397;SDS011;10358;49.590;11.030;2022-07-23T13:13:55;8.13;;;5.45;;
20397;SDS011;10358;49.590;11.030;2022-07-23T13:16:20;6.80;;;5.32;;
20397;SDS011;10358;49.590;11.030;2022-07-23T13:18:46;9.63;;;5.53;;
20397;SDS011;10358;49.590;11.030;2022-07-23T13:21:11;8.63;;;5.30;;
20397;SDS011;10358;49.590;11.030;2022-07-23T13:23:37;6.30;;;5.70;;
20397;SDS011;10358;49.590;11.030;2022-07-23T13:26:03;7.72;;;5.10;;
20397;SDS011;10358;49.590;11.030;2022-07-23T13:28:28;7.15;;;5.40;;
20397;SDS011;10358;49.590;11.030;2022-07-23T13:30:55;6.93;;;5.55;;
20397;SDS011;10358;49.590;11.030;2022-07-23T13:33:23;6.35;;;5.53;;
20397;SDS011;10358;49.590;11.030;2022-07-23T13:35:50;6.63;;;5.55;;
20397;SDS011;10358;49.590;11.030;2022-07-23T13:38:17;6.88;;;5.40;;
20397;SDS011;10358;49.590;11.030;2022-07-23T13:40:44;6.80;;;5.50;;
20397;SDS011;10358;49.590;11.030;2022-07-23T13:43:12;6.85;;;5.63;;
20397;SDS011;10358;49.590;11.030;2022-07-23T13:45:40;8.05;;;6.85;;
20397;SDS011;10358;49.590;11.030;2022-07-23T13:48:10;7.85;;;6.38;;
20397;SDS011;10358;49.590;11.030;2022-07-23T13:50:37;6.85;;;6.15;;
20397;SDS011;10358;49.590;11.030;2022-07-23T13:53:04;7.45;;;5.82;;
20397;SDS011;10358;49.590;11.030;2022-07-23T13:55:31;11.45;;;6.25;;
20397;SDS011;10358;49.590;11.030;2022-07-23T13:57:58;6.93;;;6.10;;
20397;SDS011;10358;49.590;11.030;2022-07-23T14:00:24;7.20;;;5.60;;
20397;SDS011;10358;49.590;11.030;2022-07-23T14:02:51;8.80;;;5.53;;
20397;SDS011;10358;49.590;11.030;2022-07-23T14:05:17;8.20;;;5.53;;
20397;SDS011;10358;49.590;11.030;2022-07-23T14:07:43;8.57;;;5.80;;
20397;SDS011;10358;49.590;11.030;2022-07-23T14:10:09;6.72;;;5.75;;
20397;SDS011;10358;49.590;11.030;2022-07-23T14:12:35;7.07;;;5.63;;
20397;SDS011;10358;49.590;11.030;2022-07-23T14:15:02;6.72;;;5.57;;
20397;SDS011;10358;49.590;11.030;2022-07-23T14:17:29;7.13;;;5.38;;
20397;SDS011;10358;49.590;11.030;2022-07-23T14:19:55;9.68;;;5.95;;
20397;SDS011;10358;49.590;11.030;2022-07-23T14:22:20;7.18;;;5.93;;
20397;SDS011;10358;49.590;11.030;2022-07-23T14:24:46;10.73;;;5.53;;
20397;SDS011;10358;49.590;11.030;2022-07-23T14:27:11;12.45;;;6.85;;
20397;SDS011;10358;49.590;11.030;2022-07-23T14:29:37;10.35;;;5.93;;
20397;SDS011;10358;49.590;11.030;2022-07-23T14:32:03;6.28;;;5.43;;
20397;SDS011;10358;49.590;11.030;2022-07-23T14:34:29;6.72;;;5.30;;
20397;SDS011;10358;49.590;11.030;2022-07-23T14:36:55;6.47;;;5.35;;
20397;SDS011;10358;49.590;11.030;2022-07-23T14:39:20;6.15;;;5.50;;
20397;SDS011;10358;49.590;11.030;2022-07-23T14:41:46;9.02;;;6.30;;
20397;SDS011;10358;49.590;11.030;2022-07-23T14:44:12;11.43;;;5.40;;
20397;SDS011;10358;49.590;11.030;2022-07-23T14:46:37;6.43;;;5.07;;
20397;SDS011;10358;49.590;11.030;2022-07-23T14:49:03;7.40;;;4.90;;
20397;SDS011;10358;49.590;11.030;2022-07-23T14:51:29;7.40;;;5.50;;
20397;SDS011;10358;49.590;11.030;2022-07-23T14:53:55;7.40;;;5.00;;
20397;SDS011;10358;49.590;11.030;2022-07-23T14:56:20;7.85;;;4.95;;
20397;SDS011;10358;49.590;11.030;2022-07-23T14:58:46;9.90;;;5.25;;
20397;SDS011;10358;49.590;11.030;2022-07-23T15:01:12;6.85;;;5.00;;
20397;SDS011;10358;49.590;11.030;2022-07-23T15:03:37;5.75;;;4.97;;
20397;SDS011;10358;49.590;11.030;2022-07-23T15:06:03;5.60;;;4.70;;
20397;SDS011;10358;49.590;11.030;2022-07-23T15:08:29;6.32;;;5.30;;
20397;SDS011;10358;49.590;11.030;2022-07-23T15:10:55;7.35;;;5.30;;
20397;SDS011;10358;49.590;11.030;2022-07-23T15:13:20;6.82;;;4.63;;